Patton, California
Current Conditions -  °F | °C
As of 8:49 PM on Monday 20 Oct 2014 (Local Time) from KSBD Reporting Station
Clear Clear  
Wind Chill: 66°   Ceiling: Unl
Heat Index: 66°   Visibility: 10mi
Dew Point: 57°   Wind: 6mph
Humidity: 73%   Direction: 250°WSW
Pressure: 29.92"   Gusts: NA
Location:  34.14°N, 117.22°W
Report Text: KSBD 210349Z 25005KT 10SM SKC 19/14 A2992
Loading
Personal Weather Stations






























Interactive Weather Map
Tropical Storm Tracking
New forecast layout! Learn more

10-Day Weather Forecast

Advertisements
Track Severe Weather on mobile